Time;durP1;ratioP1;P1;durP2;ratioP2;P2;SDS_P1;SDS_P2;PMS_P1;PMS_P2;Temp;Humidity;BMP_temperature;BMP_pressure;BME280_temperature;BME280_humidity;BME280_pressure;Samples;Min_cycle;Max_cycle;Signal;HPM_P1;HPM_P2
2022/07/11 00:01:57;;;;;;;4.80;1.50;;;;;;;12.54;71.07;96794.77;108575;1265;22525;-81
2022/07/11 00:04:31;;;;;;;2.20;1.20;;;;;;;12.56;71.11;96796.27;108779;1265;22571;-81
2022/07/11 00:07:06;;;;;;;4.80;1.30;;;;;;;12.54;71.26;96792.69;104320;1264;5558828;-81
2022/07/11 00:09:42;;;;;;;3.90;1.50;;;;;;;12.53;71.30;96794.71;108787;1264;22528;-81
2022/07/11 00:12:20;;;;;;;3.60;1.10;;;;;;;12.50;71.34;96795.80;108825;1262;22526;-81
2022/07/11 00:14:55;;;;;;;3.60;1.30;;;;;;;12.50;71.28;96794.38;108751;1264;22636;-81
2022/07/11 00:17:45;;;;;;;4.30;1.30;;;;;;;12.48;71.53;96789.61;108391;1264;104421;-81
2022/07/11 00:20:19;;;;;;;3.70;1.10;;;;;;;12.47;71.39;96790.38;108720;1264;22540;-81
2022/07/11 00:22:55;;;;;;;2.60;1.10;;;;;;;12.48;71.42;96792.53;108737;1265;24288;-81
2022/07/11 00:25:28;;;;;;;4.90;1.40;;;;;;;12.48;71.32;96792.00;106882;1264;2289548;-81
2022/07/11 00:28:11;;;;;;;2.50;1.00;;;;;;;12.49;71.41;96790.72;108717;1265;22548;-81
2022/07/11 00:30:46;;;;;;;2.60;1.10;;;;;;;12.50;71.44;96792.25;108786;1265;22692;-81
2022/07/11 00:33:18;;;;;;;3.60;1.20;;;;;;;12.51;71.45;96795.38;108739;1264;22524;-81
2022/07/11 00:36:00;;;;;;;4.20;1.50;;;;;;;12.51;71.35;96796.91;108576;1265;104128;-81
2022/07/11 00:38:35;;;;;;;2.90;1.10;;;;;;;12.51;71.39;96796.48;108777;1265;22783;-81
2022/07/11 00:41:07;;;;;;;3.10;1.30;;;;;;;12.52;71.60;96798.08;108793;1263;26007;-81
2022/07/11 00:43:42;;;;;;;4.30;1.00;;;;;;;12.52;71.66;96801.27;108812;1265;22530;-81
2022/07/11 00:46:25;;;;;;;4.50;1.60;;;;;;;12.51;71.77;96797.77;108636;1265;98902;-81
2022/07/11 00:48:58;;;;;;;3.70;1.20;;;;;;;12.52;71.92;96797.92;108778;1265;25264;-81
2022/07/11 00:51:40;;;;;;;3.60;1.30;;;;;;;12.48;72.07;96798.54;108756;1265;22529;-81
2022/07/11 00:54:17;;;;;;;3.20;1.10;;;;;;;12.48;71.94;96799.08;108802;1265;22541;-80
2022/07/11 00:56:48;;;;;;;2.60;1.00;;;;;;;12.51;72.06;96798.89;108632;1265;75603;-81
2022/07/11 00:59:28;;;;;;;3.50;1.10;;;;;;;12.53;72.17;96797.69;108783;1265;22524;-81
2022/07/11 01:02:01;;;;;;;1.80;1.00;;;;;;;12.50;72.16;96796.86;108800;1265;22531;-81
2022/07/11 01:04:43;;;;;;;4.30;1.70;;;;;;;12.49;72.11;96793.75;108817;1264;22531;-81
2022/07/11 01:07:20;;;;;;;3.70;1.40;;;;;;;12.46;72.24;96791.45;108582;1265;104976;-81
2022/07/11 01:09:57;;;;;;;3.20;1.20;;;;;;;12.45;72.28;96795.67;108794;1265;22533;-81
2022/07/11 01:12:32;;;;;;;3.60;1.50;;;;;;;12.42;72.57;96793.68;108792;1264;23356;-81
2022/07/11 01:15:11;;;;;;;2.50;1.30;;;;;;;12.41;72.57;96789.09;108781;1265;22585;-80
2022/07/11 01:17:47;;;;;;;3.30;1.50;;;;;;;12.38;72.71;96790.38;108772;1265;22523;-81
2022/07/11 01:20:22;;;;;;;3.70;1.40;;;;;;;12.37;72.73;96794.95;108804;1265;22858;-81
2022/07/11 01:23:06;;;;;;;4.70;1.30;;;;;;;12.38;72.71;96796.27;108828;1265;22522;-81
2022/07/11 01:25:42;;;;;;;3.20;1.40;;;;;;;12.36;73.02;96797.36;106436;1265;2931409;-81
2022/07/11 01:28:15;;;;;;;3.30;1.10;;;;;;;12.35;72.85;96798.44;108700;1265;22522;-81
2022/07/11 01:30:51;;;;;;;2.50;1.30;;;;;;;12.34;73.00;96796.92;108679;1265;25251;-81
2022/07/11 01:33:23;;;;;;;3.00;1.00;;;;;;;12.32;73.22;96797.58;108697;1265;22553;-81
2022/07/11 01:35:56;;;;;;;5.10;1.30;;;;;;;12.30;73.39;96795.91;108526;1263;88641;-81
2022/07/11 01:38:30;;;;;;;4.00;1.60;;;;;;;12.28;73.55;96793.77;108759;1265;22780;-81
2022/07/11 01:41:07;;;;;;;2.90;1.00;;;;;;;12.26;73.57;96794.64;108754;1265;22608;-81
2022/07/11 01:43:48;;;;;;;5.10;1.80;;;;;;;12.24;73.85;96790.86;108688;1265;22550;-81
2022/07/11 01:46:21;;;;;;;3.50;1.30;;;;;;;12.25;73.72;96793.58;108472;1265;125038;-81
2022/07/11 01:49:02;;;;;;;3.70;1.90;;;;;;;12.25;73.78;96793.59;108628;1265;22550;-81
2022/07/11 01:51:39;;;;;;;3.10;1.60;;;;;;;12.26;73.71;96790.27;108760;1265;22531;-81
2022/07/11 01:54:23;;;;;;;2.10;1.00;;;;;;;12.26;73.66;96789.00;108688;1265;25343;-81
2022/07/11 01:57:00;;;;;;;1.50;1.20;;;;;;;12.25;73.81;96787.67;108543;1265;93286;-81
2022/07/11 01:59:33;;;;;;;3.20;1.40;;;;;;;12.26;73.72;96787.09;108678;1265;22519;-81
2022/07/11 02:02:05;;;;;;;4.60;1.50;;;;;;;12.26;73.90;96783.96;108660;1265;22537;-81
2022/07/11 02:04:41;;;;;;;4.80;1.70;;;;;;;12.23;74.04;96780.08;108700;1265;23670;-81
2022/07/11 02:07:14;;;;;;;4.30;1.10;;;;;;;12.22;74.11;96777.80;108436;1264;114661;-81
2022/07/11 02:09:49;;;;;;;5.10;1.40;;;;;;;12.21;74.22;96775.70;108702;1265;22642;-81
2022/07/11 02:12:26;;;;;;;3.60;1.30;;;;;;;12.23;74.27;96779.66;108649;1265;23329;-81
2022/07/11 02:15:05;;;;;;;3.60;1.30;;;;;;;12.20;74.47;96774.96;108665;1265;22555;-82
2022/07/11 02:17:43;;;;;;;2.60;1.30;;;;;;;12.21;74.57;96777.13;108689;1265;25240;-81
2022/07/11 02:20:15;;;;;;;4.50;1.40;;;;;;;12.22;74.55;96774.84;108665;1265;22562;-80
2022/07/11 02:22:49;;;;;;;4.40;1.40;;;;;;;12.21;74.48;96776.28;108708;1264;22679;-81
2022/07/11 02:25:21;;;;;;;4.80;1.60;;;;;;;12.21;74.48;96783.04;108471;1265;142266;-81
2022/07/11 02:27:59;;;;;;;5.80;1.50;;;;;;;12.21;74.52;96781.91;108816;1265;22515;-81
2022/07/11 02:30:31;;;;;;;6.60;1.80;;;;;;;12.21;74.62;96782.83;108796;1265;22609;-81
2022/07/11 02:33:07;;;;;;;4.10;1.30;;;;;;;12.20;74.68;96779.06;108850;1263;25560;-81
2022/07/11 02:35:41;;;;;;;6.70;1.80;;;;;;;12.18;74.85;96777.49;108639;1265;73326;-81
2022/07/11 02:38:21;;;;;;;4.30;1.20;;;;;;;12.16;74.97;96777.63;108830;1265;22567;-81
2022/07/11 02:40:55;;;;;;;4.10;1.60;;;;;;;12.14;75.16;96779.41;108850;1265;22598;-82
2022/07/11 02:43:29;;;;;;;5.90;1.60;;;;;;;12.12;75.34;96779.80;108811;1265;22538;-81
2022/07/11 02:46:03;;;;;;;3.70;1.70;;;;;;;12.10;75.68;96778.42;107534;1265;1515826;-82
2022/07/11 02:48:34;;;;;;;3.50;1.70;;;;;;;12.08;75.82;96784.35;108840;1264;24394;-81
2022/07/11 02:51:11;;;;;;;4.10;1.50;;;;;;;12.07;76.01;96782.08;108837;1264;22691;-81
2022/07/11 02:53:46;;;;;;;4.00;1.60;;;;;;;12.04;76.20;96781.00;108679;1265;22664;-81
2022/07/11 02:56:27;;;;;;;4.00;1.50;;;;;;;12.03;76.31;96783.41;108605;1264;92291;-81
2022/07/11 02:59:00;;;;;;;5.30;1.70;;;;;;;12.01;76.52;96781.09;108837;1264;25371;-82
2022/07/11 03:01:35;;;;;;;6.10;1.50;;;;;;;12.00;76.53;96778.29;108957;1264;23005;-81
2022/07/11 03:04:09;;;;;;;1.70;1.10;;;;;;;11.99;76.59;96782.73;108581;1263;22560;-81
2022/07/11 03:06:42;;;;;;;4.30;1.60;;;;;;;11.98;76.58;96785.33;108772;1264;77678;-81
2022/07/11 03:09:16;;;;;;;2.80;1.10;;;;;;;11.99;76.60;96782.19;108860;1264;25338;-81
2022/07/11 03:11:52;;;;;;;3.50;1.50;;;;;;;11.98;76.63;96783.67;108840;1264;23814;-81
2022/07/11 03:14:29;;;;;;;4.60;1.20;;;;;;;11.98;76.74;96781.98;108796;1264;24476;-81
2022/07/11 03:17:06;;;;;;;3.70;1.30;;;;;;;11.98;76.62;96782.52;106865;1264;2364279;-81
2022/07/11 03:19:39;;;;;;;3.20;1.50;;;;;;;11.98;76.78;96784.43;108761;1264;22550;-81
2022/07/11 03:22:19;;;;;;;4.60;1.30;;;;;;;11.97;76.78;96781.19;108790;1264;22557;-80
2022/07/11 03:24:54;;;;;;;3.70;1.20;;;;;;;11.96;76.96;96783.48;108759;1264;22522;-80
2022/07/11 03:27:28;;;;;;;4.80;1.30;;;;;;;11.96;76.99;96786.67;108462;1265;125661;-80
2022/07/11 03:30:16;;;;;;;3.70;1.50;;;;;;;11.96;77.04;96788.16;108748;1263;25400;-80
2022/07/11 03:32:50;;;;;;;2.70;1.30;;;;;;;11.98;77.12;96790.59;108655;1264;24422;-80
2022/07/11 03:35:42;;;;;;;3.10;1.30;;;;;;;11.99;77.11;96787.50;108471;1264;116620;-80
2022/07/11 03:38:25;;;;;;;5.00;1.60;;;;;;;11.99;77.04;96786.75;108768;1264;23244;-81
2022/07/11 03:40:58;;;;;;;2.50;1.40;;;;;;;12.01;76.95;96785.23;108761;1264;22987;-81
2022/07/11 03:43:38;;;;;;;2.00;1.10;;;;;;;12.03;77.03;96788.61;108761;1264;22665;-81
2022/07/11 03:46:12;;;;;;;4.90;1.20;;;;;;;12.03;76.92;96791.70;107571;1264;1532056;-81
2022/07/11 03:48:48;;;;;;;4.20;1.30;;;;;;;12.03;77.03;96790.73;108802;1264;22544;-81
2022/07/11 03:51:22;;;;;;;6.70;1.50;;;;;;;12.04;76.99;96795.66;108787;1264;25328;-81
2022/07/11 03:53:53;;;;;;;4.80;1.30;;;;;;;12.06;76.93;96793.89;108804;1263;22580;-81
2022/07/11 03:56:37;;;;;;;4.90;1.30;;;;;;;12.08;77.05;96796.52;108599;1264;92943;-81
2022/07/11 03:59:15;;;;;;;3.40;1.50;;;;;;;12.10;76.95;96796.55;108792;1262;22676;-81
2022/07/11 04:01:48;;;;;;;3.30;1.40;;;;;;;12.11;76.98;96801.44;108767;1262;22601;-80
2022/07/11 04:04:20;;;;;;;2.70;1.20;;;;;;;12.12;76.87;96803.40;108781;1264;22627;-81
2022/07/11 04:06:55;;;;;;;7.60;1.50;;;;;;;12.14;76.91;96802.31;108631;1264;67285;-81
2022/07/11 04:09:28;;;;;;;2.30;1.30;;;;;;;12.16;76.95;96802.88;108775;1264;25343;-81
2022/07/11 04:12:01;;;;;;;3.90;1.50;;;;;;;12.15;77.01;96801.77;108776;1264;22512;-81
2022/07/11 04:14:37;;;;;;;4.20;1.10;;;;;;;12.14;76.96;96801.20;108767;1263;22627;-81
2022/07/11 04:17:23;;;;;;;3.30;1.50;;;;;;;12.14;76.93;96801.78;108568;1264;102772;-81
2022/07/11 04:19:57;;;;;;;6.40;1.80;;;;;;;12.14;76.90;96797.43;108676;1264;25413;-81
2022/07/11 04:22:29;;;;;;;3.00;1.10;;;;;;;12.16;77.10;96799.78;108787;1264;22576;-81
2022/07/11 04:25:08;;;;;;;3.60;1.20;;;;;;;12.17;77.12;96796.20;108713;1264;22698;-81
2022/07/11 04:27:45;;;;;;;3.40;1.20;;;;;;;12.18;77.21;96796.73;108814;1264;22513;-81
2022/07/11 04:30:24;;;;;;;5.30;1.50;;;;;;;12.21;77.33;96796.59;108818;1264;22538;-81
2022/07/11 04:32:58;;;;;;;4.60;1.40;;;;;;;12.21;77.36;96797.02;108731;1264;25424;-81
2022/07/11 04:35:42;;;;;;;4.50;1.70;;;;;;;12.23;77.51;96798.54;106673;1264;2597407;-81
2022/07/11 04:38:21;;;;;;;2.10;1.10;;;;;;;12.27;77.82;96797.48;108768;1264;22988;-81
2022/07/11 04:40:58;;;;;;;3.90;1.50;;;;;;;12.26;77.58;96799.46;108805;1264;23813;-81
2022/07/11 04:43:29;;;;;;;2.40;1.30;;;;;;;12.22;77.62;96800.41;108755;1262;22571;-81
2022/07/11 04:46:10;;;;;;;3.60;1.50;;;;;;;12.19;77.75;96810.48;108403;1264;143509;-81
2022/07/11 04:48:41;;;;;;;4.20;1.30;;;;;;;12.15;77.97;96809.85;108763;1264;22797;-81
2022/07/11 04:51:13;;;;;;;5.60;1.70;;;;;;;12.12;78.07;96814.24;108660;1264;25363;-81
2022/07/11 04:53:50;;;;;;;5.20;1.50;;;;;;;12.12;78.27;96816.48;108795;1264;22518;-81
2022/07/11 04:56:22;;;;;;;7.00;1.70;;;;;;;12.13;78.20;96817.48;108593;1264;74992;-81
2022/07/11 04:58:56;;;;;;;4.10;1.20;;;;;;;12.11;78.23;96819.14;108716;1264;23153;-81
2022/07/11 05:01:31;;;;;;;3.60;1.40;;;;;;;12.08;78.48;96824.84;108680;1264;22515;-81
2022/07/11 05:04:07;;;;;;;3.70;1.40;;;;;;;12.08;78.62;96827.61;108652;1264;22726;-81
2022/07/11 05:06:39;;;;;;;2.90;1.40;;;;;;;12.11;78.83;96827.48;108437;1265;99903;-81
2022/07/11 05:09:14;;;;;;;4.20;1.30;;;;;;;12.17;79.07;96823.86;108698;1262;25327;-81
2022/07/11 05:11:48;;;;;;;4.90;1.40;;;;;;;12.20;78.53;96828.02;108651;1264;22757;-81
2022/07/11 05:14:21;;;;;;;3.30;1.30;;;;;;;12.23;78.78;96829.63;108713;1264;22711;-81
2022/07/11 05:16:55;;;;;;;4.40;1.50;;;;;;;12.26;78.95;96831.90;107019;1264;2030925;-81
2022/07/11 05:19:29;;;;;;;4.00;1.30;;;;;;;12.27;78.99;96829.92;108720;1264;23439;-81
2022/07/11 05:22:06;;;;;;;6.20;1.50;;;;;;;12.31;79.10;96826.78;108685;1264;22554;-81
2022/07/11 05:24:37;;;;;;;4.60;1.60;;;;;;;12.38;79.42;96827.34;108652;1264;22532;-81
2022/07/11 05:27:10;;;;;;;2.40;1.40;;;;;;;12.45;79.15;96829.45;108541;1264;109526;-81
2022/07/11 05:29:43;;;;;;;4.20;1.60;;;;;;;12.49;78.97;96828.80;108767;1264;22553;-81
2022/07/11 05:32:17;;;;;;;5.20;2.00;;;;;;;12.49;79.07;96830.49;108798;1264;23852;-81
2022/07/11 05:35:00;;;;;;;5.20;1.50;;;;;;;12.49;78.83;96837.46;108761;1264;22570;-81
2022/07/11 05:37:31;;;;;;;3.60;1.50;;;;;;;12.47;78.96;96833.18;108753;1264;24325;-81
2022/07/11 05:40:04;;;;;;;5.60;2.10;;;;;;;12.47;79.05;96837.40;108778;1264;22672;-81
2022/07/11 05:42:36;;;;;;;3.40;1.70;;;;;;;12.45;79.27;96835.55;108773;1264;22643;-81
2022/07/11 05:45:11;;;;;;;6.30;1.80;;;;;;;12.40;79.36;96836.25;108660;1264;94180;-80
2022/07/11 05:47:42;;;;;;;4.20;1.70;;;;;;;12.34;79.57;96838.17;108766;1264;22528;-81
2022/07/11 05:50:17;;;;;;;4.40;1.60;;;;;;;12.29;79.84;96840.36;108815;1264;24209;-81
2022/07/11 05:52:52;;;;;;;8.60;1.50;;;;;;;12.22;80.28;96845.54;108792;1264;22538;-82
2022/07/11 05:55:26;;;;;;;3.50;1.50;;;;;;;12.13;80.91;96848.36;108580;1264;85408;-81
2022/07/11 05:57:57;;;;;;;3.90;1.40;;;;;;;12.10;81.29;96850.08;108745;1264;22535;-81
2022/07/11 06:00:31;;;;;;;2.70;1.30;;;;;;;12.06;81.53;96849.59;108719;1264;22717;-81
2022/07/11 06:03:04;;;;;;;3.40;1.40;;;;;;;12.04;81.88;96848.39;108766;1264;25410;-81
2022/07/11 06:05:38;;;;;;;5.10;1.50;;;;;;;12.01;82.06;96850.71;108515;1264;182615;-81
2022/07/11 06:11:01;;;;;;;3.50;1.80;;;;;;;12.09;82.58;96851.90;108594;1262;22515;-81
2022/07/11 06:13:36;;;;;;;4.90;2.00;;;;;;;12.19;82.31;96848.39;108695;1263;24213;-81
2022/07/11 06:16:09;;;;;;;3.60;1.40;;;;;;;12.30;82.07;96850.19;108358;1265;99903;-81
2022/07/11 06:18:42;;;;;;;3.40;1.50;;;;;;;12.39;81.72;96848.33;108664;1262;25502;-81
2022/07/11 06:21:14;;;;;;;2.40;1.60;;;;;;;12.45;81.51;96853.05;108659;1264;25478;-81
2022/07/11 06:23:45;;;;;;;4.90;1.70;;;;;;;12.63;81.70;96855.17;108690;1264;22671;-81
2022/07/11 06:26:17;;;;;;;4.20;1.80;;;;;;;12.75;81.05;96855.50;106871;1264;2126299;-81
2022/07/11 06:28:51;;;;;;;4.60;1.40;;;;;;;12.87;80.84;96857.81;108640;1264;22548;-81
2022/07/11 06:31:23;;;;;;;3.30;1.80;;;;;;;12.95;80.57;96859.13;108705;1264;22540;-81
2022/07/11 06:33:57;;;;;;;4.80;2.10;;;;;;;13.05;80.44;96855.73;108671;1264;22603;-81
2022/07/11 06:36:29;;;;;;;3.80;1.70;;;;;;;13.03;79.94;96855.77;108538;1264;82153;-81
2022/07/11 06:39:00;;;;;;;4.80;1.50;;;;;;;12.99;79.78;96853.08;108662;1264;22562;-81
2022/07/11 06:41:32;;;;;;;4.00;1.30;;;;;;;13.09;79.93;96851.34;108638;1264;22555;-81
2022/07/11 06:44:08;;;;;;;2.80;1.60;;;;;;;13.29;79.62;96851.23;108725;1264;24177;-81
2022/07/11 06:46:40;;;;;;;4.30;1.60;;;;;;;13.38;79.15;96846.67;108508;1263;98639;-81
2022/07/11 06:49:14;;;;;;;3.20;1.50;;;;;;;13.46;78.93;96846.38;108690;1264;23378;-81
2022/07/11 06:51:48;;;;;;;3.90;1.60;;;;;;;13.63;78.87;96845.48;108748;1264;22544;-81
2022/07/11 06:54:19;;;;;;;4.70;1.60;;;;;;;13.81;78.43;96843.41;108697;1264;22585;-81
2022/07/11 06:56:51;;;;;;;3.60;1.50;;;;;;;13.86;77.43;96843.22;108452;1264;134506;-81
2022/07/11 06:59:25;;;;;;;3.40;1.30;;;;;;;13.79;77.46;96849.58;108675;1264;25339;-80
2022/07/11 07:01:57;;;;;;;3.60;1.70;;;;;;;13.90;77.43;96844.11;108686;1264;22518;-81
2022/07/11 07:04:31;;;;;;;3.80;1.70;;;;;;;14.01;77.28;96845.36;108701;1264;22790;-81
2022/07/11 07:07:02;;;;;;;3.00;1.50;;;;;;;14.04;76.52;96848.19;108482;1264;95667;-81
2022/07/11 07:09:35;;;;;;;3.10;2.20;;;;;;;14.11;76.60;96845.50;108674;1264;22620;-81
2022/07/11 07:12:08;;;;;;;4.40;1.70;;;;;;;14.06;75.76;96846.06;108685;1264;22786;-81
2022/07/11 07:14:45;;;;;;;2.20;1.50;;;;;;;14.03;75.02;96846.33;108694;1263;22604;-81
2022/07/11 07:17:17;;;;;;;5.10;1.60;;;;;;;14.13;74.98;96844.08;108449;1264;90445;-81
2022/07/11 07:19:55;;;;;;;4.20;1.80;;;;;;;14.04;74.43;96849.90;108730;1264;24412;-81
2022/07/11 07:22:28;;;;;;;3.20;1.60;;;;;;;13.84;74.63;96849.93;108697;1263;22521;-81
2022/07/11 07:25:00;;;;;;;2.80;1.30;;;;;;;13.66;75.26;96854.95;108676;1264;24370;-81
2022/07/11 07:27:35;;;;;;;5.20;1.70;;;;;;;13.60;75.94;96854.67;108515;1263;145419;-80
2022/07/11 07:30:08;;;;;;;5.90;1.90;;;;;;;13.59;76.37;96860.98;108728;1264;22554;-81
2022/07/11 07:32:41;;;;;;;4.80;1.90;;;;;;;13.71;76.96;96861.81;108742;1264;22554;-81
2022/07/11 07:35:16;;;;;;;5.90;2.20;;;;;;;13.84;76.95;96861.02;107075;1264;2052263;-80
2022/07/11 07:37:50;;;;;;;3.40;1.40;;;;;;;13.91;76.81;96862.21;108790;1263;22515;-81
2022/07/11 07:40:24;;;;;;;4.10;1.80;;;;;;;13.90;76.26;96854.13;108769;1264;22529;-81
2022/07/11 07:42:59;;;;;;;4.80;2.00;;;;;;;13.79;76.01;96854.02;108779;1263;22535;-81
2022/07/11 07:45:30;;;;;;;4.90;1.90;;;;;;;13.75;76.43;96853.01;108544;1263;109002;-80
2022/07/11 07:48:02;;;;;;;7.30;2.30;;;;;;;13.93;75.93;96852.64;108644;1264;22624;-81
2022/07/11 07:50:34;;;;;;;4.50;1.90;;;;;;;14.52;76.10;96844.66;108686;1264;22551;-81
2022/07/11 07:53:07;;;;;;;3.90;1.30;;;;;;;17.31;76.44;96839.33;108731;1263;24434;-82
2022/07/11 07:55:41;;;;;;;3.50;1.60;;;;;;;21.05;69.80;96832.13;108525;1264;95343;-82
2022/07/11 07:58:12;;;;;;;5.50;1.60;;;;;;;22.61;62.49;96829.92;108797;1264;22656;-82
2022/07/11 08:03:34;;;;;;;3.50;1.40;;;;;;;20.29;58.23;96826.05;108708;1264;22570;-81
2022/07/11 08:06:10;;;;;;;4.60;1.60;;;;;;;18.64;58.66;96827.11;108434;1263;101963;-81
2022/07/11 08:08:43;;;;;;;4.30;1.80;;;;;;;17.64;61.01;96828.14;108811;1264;23475;-81
2022/07/11 08:11:14;;;;;;;4.70;1.70;;;;;;;17.28;63.12;96831.33;108780;1263;25352;-81
2022/07/11 08:13:49;;;;;;;3.50;1.70;;;;;;;16.91;63.23;96828.73;108794;1264;22744;-81
2022/07/11 08:16:20;;;;;;;4.80;1.40;;;;;;;16.30;64.03;96826.92;107125;1264;2041664;-81
2022/07/11 08:18:57;;;;;;;5.00;1.60;;;;;;;16.14;65.32;96827.02;108809;1262;22564;-81
2022/07/11 08:21:29;;;;;;;5.30;1.90;;;;;;;16.07;65.27;96816.15;108770;1264;22532;-81
2022/07/11 08:24:02;;;;;;;3.60;1.70;;;;;;;16.10;65.51;96813.53;108773;1264;23854;-81
2022/07/11 08:26:34;;;;;;;4.10;1.40;;;;;;;16.98;65.86;96811.79;108579;1264;119205;-80
2022/07/11 08:29:08;;;;;;;4.50;2.00;;;;;;;17.47;64.37;96802.53;108808;1263;22632;-81
2022/07/11 08:31:42;;;;;;;4.00;1.60;;;;;;;17.86;64.08;96802.35;108804;1264;22516;-81
2022/07/11 08:34:17;;;;;;;7.40;1.90;;;;;;;17.97;62.78;96804.34;108787;1264;22552;-81
2022/07/11 08:36:51;;;;;;;3.90;1.50;;;;;;;18.00;61.11;96814.98;108611;1264;83612;-81
2022/07/11 08:39:24;;;;;;;3.70;1.40;;;;;;;16.80;61.47;96812.02;108797;1263;24374;-81
2022/07/11 08:41:59;;;;;;;1.90;0.80;;;;;;;15.77;60.88;96806.73;108836;1263;24269;-80
2022/07/11 08:44:31;;;;;;;3.00;0.80;;;;;;;14.93;61.73;96800.70;108784;1264;22561;-81
2022/07/11 08:47:04;;;;;;;2.80;1.00;;;;;;;14.52;63.20;96806.05;108490;1264;140745;-81
2022/07/11 08:49:42;;;;;;;2.90;0.80;;;;;;;14.43;64.46;96808.84;108750;1264;22795;-81
2022/07/11 08:52:21;;;;;;;2.70;0.70;;;;;;;14.40;65.38;96818.30;108816;1264;22590;-80
2022/07/11 08:54:57;;;;;;;4.20;1.20;;;;;;;14.48;66.21;96818.14;108841;1264;22515;-81
2022/07/11 08:57:28;;;;;;;1.90;0.80;;;;;;;15.65;66.73;96814.86;108587;1264;96431;-81
2022/07/11 09:00:05;;;;;;;4.10;1.10;;;;;;;17.56;65.45;96812.59;108802;1264;22534;-81
2022/07/11 09:02:41;;;;;;;2.50;1.10;;;;;;;19.13;63.20;96801.13;108799;1264;22506;-81
2022/07/11 09:05:17;;;;;;;4.70;1.10;;;;;;;18.96;60.57;96796.98;108657;1263;105788;-80
2022/07/11 09:07:52;;;;;;;2.20;1.10;;;;;;;18.65;62.21;96794.94;108762;1264;22525;-81
2022/07/11 09:10:27;;;;;;;4.10;1.30;;;;;;;18.96;61.48;96790.09;108761;1264;22554;-81
2022/07/11 09:13:06;;;;;;;4.60;1.10;;;;;;;18.88;60.92;96791.86;108657;1264;22700;-81
2022/07/11 09:15:50;;;;;;;4.60;1.40;;;;;;;18.42;60.00;96789.69;108480;1264;108002;-80
2022/07/11 09:18:36;;;;;;;1.50;0.80;;;;;;;17.92;60.74;96792.64;108760;1264;22537;-81
2022/07/11 09:26:58;;;;;;;3.50;1.00;;;;;;;17.10;63.70;96778.27;108468;1264;118600;-81
2022/07/11 09:29:35;;;;;;;3.90;1.30;;;;;;;17.27;63.54;96775.17;108778;1264;22524;-81
2022/07/11 09:32:11;;;;;;;3.50;1.40;;;;;;;17.46;63.63;96776.14;108811;1264;22974;-80
2022/07/11 09:35:03;;;;;;;3.40;1.10;;;;;;;17.54;62.85;96771.51;108769;1263;24298;-80
2022/07/11 09:37:49;;;;;;;3.90;1.40;;;;;;;17.70;63.00;96768.69;108830;1264;25311;-81
2022/07/11 09:40:25;;;;;;;2.80;1.20;;;;;;;17.98;62.25;96770.23;108808;1264;22535;-81
2022/07/11 09:43:00;;;;;;;4.90;1.20;;;;;;;17.92;59.70;96765.29;108814;1264;22520;-81
2022/07/11 09:45:34;;;;;;;3.60;1.30;;;;;;;17.49;58.76;96768.53;108506;1264;127414;-81
2022/07/11 09:48:17;;;;;;;4.70;1.10;;;;;;;17.11;58.70;96766.91;108726;1264;24345;-81
2022/07/11 09:51:04;;;;;;;4.60;1.20;;;;;;;16.91;59.46;96772.39;108761;1264;24202;-81
2022/07/11 09:53:58;;;;;;;4.40;1.30;;;;;;;16.99;60.00;96765.96;108725;1264;25244;-81
2022/07/11 09:56:33;;;;;;;3.50;1.50;;;;;;;17.30;57.48;96753.39;108557;1264;99633;-81
2022/07/11 09:59:09;;;;;;;4.50;1.10;;;;;;;17.55;57.09;96753.46;108792;1264;22582;-81
2022/07/11 10:01:41;;;;;;;5.50;1.40;;;;;;;17.43;56.99;96751.52;108849;1262;22525;-81
2022/07/11 10:04:16;;;;;;;3.60;1.20;;;;;;;17.52;57.51;96751.37;108811;1264;22542;-81
2022/07/11 10:06:49;;;;;;;3.70;1.10;;;;;;;17.64;57.35;96735.33;108539;1263;143903;-80
2022/07/11 10:09:20;;;;;;;4.90;1.20;;;;;;;17.81;57.36;96735.63;108797;1264;24229;-81
2022/07/11 10:11:55;;;;;;;3.00;1.20;;;;;;;17.75;56.63;96737.91;108727;1264;22610;-81
2022/07/11 10:14:27;;;;;;;3.70;1.30;;;;;;;17.19;55.81;96741.98;108752;1263;22675;-81
2022/07/11 10:17:07;;;;;;;4.30;1.60;;;;;;;16.70;56.79;96741.11;108494;1263;93813;-81
2022/07/11 10:19:50;;;;;;;6.20;1.10;;;;;;;16.78;57.16;96751.14;108721;1264;22560;-81
2022/07/11 10:22:36;;;;;;;1.50;1.00;;;;;;;16.98;53.75;96747.42;108736;1264;22578;-81
2022/07/11 10:25:21;;;;;;;3.90;0.90;;;;;;;17.13;53.26;96748.78;108545;1264;81241;-80
2022/07/11 10:28:15;;;;;;;0.80;0.50;;;;;;;17.38;52.54;96748.90;108817;1263;22575;-81
2022/07/11 10:30:52;;;;;;;2.90;1.00;;;;;;;17.34;51.41;96750.27;108754;1264;23318;-82
2022/07/11 10:33:26;;;;;;;4.20;0.80;;;;;;;17.38;51.83;96757.73;108825;1264;22577;-80
2022/07/11 10:36:03;;;;;;;3.20;0.70;;;;;;;17.58;54.13;96757.82;107256;1264;1854280;-81
2022/07/11 10:38:38;;;;;;;2.00;0.90;;;;;;;17.71;52.79;96753.54;108702;1264;22528;-81
2022/07/11 10:41:27;;;;;;;2.00;1.00;;;;;;;17.43;53.06;96758.04;108703;1263;22589;-81
2022/07/11 10:44:03;;;;;;;3.90;0.90;;;;;;;17.42;52.49;96761.27;108605;1264;22527;-80
2022/07/11 10:46:37;;;;;;;4.00;0.90;;;;;;;17.36;52.75;96757.65;108526;1264;96209;-80
2022/07/11 10:49:26;;;;;;;1.80;0.50;;;;;;;17.32;52.54;96756.23;108791;1263;23143;-80
2022/07/11 10:52:12;;;;;;;2.70;0.90;;;;;;;17.24;51.79;96752.70;108776;1264;22616;-80
2022/07/11 10:55:00;;;;;;;1.70;0.40;;;;;;;17.22;51.68;96752.59;108753;1264;22644;-81
2022/07/11 10:57:43;;;;;;;1.80;0.80;;;;;;;17.34;52.06;96762.46;106872;1264;2358099;-80
2022/07/11 11:00:20;;;;;;;1.80;0.30;;;;;;;17.53;51.09;96757.38;108400;1264;525023;-81
2022/07/11 11:03:07;;;;;;;3.80;0.80;;;;;;;17.59;50.20;96760.63;108776;1263;22540;-81
2022/07/11 11:05:54;;;;;;;3.20;0.80;;;;;;;17.50;48.70;96758.86;108606;1264;76173;-80
2022/07/11 11:08:49;;;;;;;1.20;0.70;;;;;;;17.55;49.46;96755.52;108807;1263;22531;-80
2022/07/11 11:11:39;;;;;;;2.90;0.80;;;;;;;17.67;49.34;96750.67;108817;1264;22570;-80
2022/07/11 11:14:30;;;;;;;2.70;0.70;;;;;;;17.94;50.31;96754.73;108765;1264;22705;-81
2022/07/11 11:17:38;;;;;;;3.20;0.70;;;;;;;18.09;48.88;96756.09;108494;1264;116600;-80
2022/07/11 11:20:36;;;;;;;3.20;0.80;;;;;;;18.24;48.90;96761.98;108748;1264;22537;-80
2022/07/11 11:23:20;;;;;;;2.00;0.50;;;;;;;18.01;47.49;96763.90;108806;1263;22527;-80
2022/07/11 11:25:55;;;;;;;4.50;0.90;;;;;;;17.87;48.99;96773.98;108609;1263;67646;-81
2022/07/11 11:28:30;;;;;;;4.90;0.70;;;;;;;17.94;47.99;96771.27;108780;1263;22539;-80
2022/07/11 11:31:10;;;;;;;2.70;0.70;;;;;;;17.95;49.09;96765.56;108784;1264;22624;-80
2022/07/11 11:33:48;;;;;;;2.20;0.70;;;;;;;18.17;49.81;96768.58;108672;1264;22538;-81
2022/07/11 11:36:21;;;;;;;1.70;0.50;;;;;;;18.35;48.81;96757.42;108605;1264;98123;-81
2022/07/11 11:39:02;;;;;;;1.90;0.70;;;;;;;18.15;47.40;96761.69;108830;1261;23427;-80
2022/07/11 11:41:42;;;;;;;3.50;1.00;;;;;;;18.22;48.51;96764.05;108768;1264;26116;-80
2022/07/11 11:44:21;;;;;;;4.40;1.00;;;;;;;18.17;48.75;96762.48;108816;1264;24244;-80
2022/07/11 11:47:02;;;;;;;2.90;0.90;;;;;;;18.29;49.36;96770.68;108516;1264;124643;-80
2022/07/11 11:49:49;;;;;;;3.10;0.70;;;;;;;18.65;50.41;96763.41;108777;1264;22547;-80
2022/07/11 11:52:27;;;;;;;3.70;0.80;;;;;;;18.68;47.94;96761.56;108738;1264;22554;-80
2022/07/11 11:55:04;;;;;;;3.00;1.10;;;;;;;18.19;47.11;96766.69;108778;1264;23235;-80
2022/07/11 11:57:42;;;;;;;3.60;1.00;;;;;;;17.83;47.92;96774.02;108797;1264;22516;-80
2022/07/11 12:00:29;;;;;;;3.20;1.30;;;;;;;17.69;48.79;96794.84;108742;1264;22591;-80
2022/07/11 12:03:17;;;;;;;4.30;1.10;;;;;;;17.23;50.48;96857.98;108300;1267;25355;-80
2022/07/11 12:06:00;;;;;;;3.30;1.00;;;;;;;16.47;53.68;96877.04;108090;1267;98191;-79
2022/07/11 12:08:31;;;;;;;2.60;1.10;;;;;;;15.53;56.49;96881.92;108577;1264;22690;-79
2022/07/11 12:11:13;;;;;;;1.80;0.80;;;;;;;14.88;59.79;96893.60;108821;1264;22530;-80
2022/07/11 12:13:44;;;;;;;3.90;0.60;;;;;;;14.32;62.07;96911.89;108776;1264;24298;-80
2022/07/11 12:19:12;;;;;;;;;;;;;;;13.41;65.46;96936.84;108756;1264;22659;-80
2022/07/11 12:21:47;;;;;;;2.90;1.00;;;;;;;13.17;66.80;96928.16;108690;1264;22572;-80